Bookmark and Share
Track history (hours):
 

Gaz Palmyra

Last reported at 2014-Apr-19 12:16 UTC. Time now 2014-Apr-21 07:37 UTC.
Position N 36°03' W 000°00'.

Length 137 m; draft 6.1 m.

Type: Ship (hazmat cat C). MMSI: 353247000.

NotesDate/timePositionNaut miles runAvg speedWind from/ knotsBaromVisibWave heightAir tempDewpointWater temp
2014-Apr-19 12:16N 36°03' W 000°00'11 0.3
2014-Apr-18 03:06N 35°55' W 000°09'0 0.1
2014-Apr-18 02:33N 35°55' W 000°09'3 0.8
2014-Apr-17 23:24N 35°54' W 000°12'1 1.1
2014-Apr-17 22:29N 35°55' W 000°11'5 4.5
2014-Apr-17 21:19N 35°58' W 000°15'1 1.9
2014-Apr-17 20:33N 35°59' W 000°17'2 0.8
2014-Apr-17 17:22N 35°59' W 000°14'70 4.7
2014-Apr-17 02:28N 36°42' E 000°54'910.4
2014-Apr-17 01:33N 36°45' E 001°06'10 9.7
2014-Apr-17 00:32N 36°46' E 001°18'11 9.6
2014-Apr-16 23:21N 36°47' E 001°32'910.3
2014-Apr-16 22:31N 36°48' E 001°43'3110.4
2014-Apr-16 19:30N 36°50' E 002°21'9 9.7
2014-Apr-16 18:33N 36°51' E 002°33'1211.2
2014-Apr-16 17:29N 36°53' E 002°48'1110.7
2014-Apr-16 16:26N 36°52' E 003°02'  
2014-Apr-12 03:07N 36°47' E 003°06'0 0.0
2014-Apr-11 15:22N 36°47' E 003°06'0 0.0
2014-Apr-11 14:28N 36°47' E 003°06'0 0.0
2014-Apr-11 12:22N 36°47' E 003°06'0 0.0
2014-Apr-11 11:19N 36°47' E 003°06'0 0.0
2014-Apr-11 10:28N 36°47' E 003°06'0 0.0
2014-Apr-11 03:28N 36°47' E 003°06'0 0.0
2014-Apr-11 02:28N 36°47' E 003°06'0 0.0
2014-Apr-11 01:07N 36°47' E 003°06'0 0.1
2014-Apr-11 00:28N 36°47' E 003°06'0 0.0
2014-Apr-10 23:31N 36°47' E 003°06'0 0.0
2014-Apr-10 22:31N 36°47' E 003°06'0 0.0
2014-Apr-10 21:22N 36°47' E 003°06'0 0.0
2014-Apr-10 20:31N 36°47' E 003°06'0 0.0
2014-Apr-10 18:31N 36°47' E 003°06'0 0.0
2014-Apr-09 22:04N 36°47' E 003°06'0 0.0
2014-Apr-09 18:19N 36°47' E 003°06'0 0.0
2014-Apr-09 15:23N 36°47' E 003°06'  

Dump ship's entire track history

sailing weather and tide predictions

Gaz Palmyra — 3FCO4 — position and weather